Airfield :
LOGIN :

Register | Disclaimer

   EN    FR    IT 

 










Legend :    VFR   Marginal VFR   IFR   Intensive IFR   Very Intensive IFR
Visi :
Ceiling :
>= 8 km
>= 3000ft
5 to 8 km
1000 to 3000 ft
1500m to 5 km
500 to 1000 ft
800 to 1500m
200 to 500 ft
< 800m
< 200 ft
Symbols :   Thunderstorms  Fog  Heavy snow  Heavy precipitations  Wind > 20 kt
SIGMETs :     Misc.  Thunderstorms  Icing  Turbulence  Mountain Waves  Volcanic Ashes







- Airport Elevation : 1521 ft
- IATA code : NCY
- Download approach charts


LFLP - Annecy

CURRENT METAR :
  • 202330Z AUTO 00000KT 6000 -RA FEW019 BKN048 BKN056 02/01 Q1007

EXPIRED METARs :
  • 202300Z AUTO 32004KT 280V360 6000 -RA FEW018 BKN045 OVC058 02/00 Q1007
  • 202230Z AUTO 29003KT 240V330 7000 FEW064 SCT076 OVC088 02/00 Q1007
  • 202200Z AUTO VRB03KT 7000 FEW017 BKN094 OVC110 02/00 Q1006
  • 202130Z AUTO 33004KT 280V030 8000 FEW017 BKN092 OVC110 02/00 Q1005
  • 202100Z AUTO 34005KT 8000 NSC 02/M00 Q1005

TAF TAF LFLP
Valid from the 20 at 15:00 until the 21 at 15:00 UTC


201400Z 2015/2115 28005KT 9999 BKN020 BKN045
TEMPO 2100/2112 5000 -RA
No reported NOTAMs for that airfield.
2 SIGMETs reported for the Marseille FIR (LFMM) :
 
Embedded thunderstorms
LFMM SIGMET 5 VALID 210000/210400 LFPW
LFMM MARSEILLE FIR/UIR EMBD TS FCST WI N4115 E00845 - N4115 E00800 - N3900 E00800 - N3900 E00430 - N4200 E00430 - N4200 E00415 - N4445 E00445 - N4115 E00845 TOP FL340 STNR NC=
Embedded thunderstorms
LFMM SIGMET 4 VALID 202100/210000 LFPW
LFMM MARSEILLE FIR/UIR EMBD TS FCST WI N3900 E00530 - N3900 E00430 - N4200 E00430 - N4215 E00315 - N4430 E00430 - N4145 E00800 - N3900 E00530 TOP FL340 STNR NC=



MET'MAP, your aeronautical weather chart ! - Copyright ORBIFLY December 2007 - Disclaimer

ORBIFLY MET'MAP TEAM :

Programming & Development : Alexandra Zaïnal
Concept & Development : Baudouin d'Aumeries
Co-Development & Prog : Marc-Olivier Méhu
Technical & hardware support : Manuel Goepfert

Contact : metmap@orbifly.com




SOURCES & CREDITS :

   NOAA